Portada
METAR-TAF:

METAR-TAF

Aeroports :

Loreto, Mèxic

latitud: 26-01N, longitud: 111-21W, altitud: 15 m

Observació

L'informe es va fer fa 1 hora i 33 minuts, a les 16:45 UTC
Vent 14 kt del Est/Nord-Est
Temperatura 28°C
Humitat 66%
Pressió 1012 hPa
Visibilitat: 16.1 km
Cel clar

METAR: MMLT 251645Z 07014KT 10SM SKC 28/21 A2987 RMK HZY

Hora: 12:18 (18:18 UTC)

Pronòstic

L'informe es va fer fa 1 hora i 33 minuts, a les 16:45 UTC
Pronòstic vàlid del 25 a les 18 UTC al 26 a les 18 UTC
Vent 10 kt del Est/Nord-Est
Visibilitat: 10 km
Cel clar
Evolucionant progressivament
l' 25 a les 20 UTC al 25 a les 21 UTC
Vent 15 kt del Est/Nord-Est
A partir de les 26 a les 0300 UTC
Vent 5 kt del Oest/Sud-Oest
Visibilitat: 10 km
Cel clar
A partir de les 26 a les 1500 UTC
Vent 5 kt del Est/Nord-Est
Visibilitat: 10 km
Cel clar

TAF: MMLT 251645Z 2518/2618 07010KT P6SM SKC BECMG 2520/2521 07015KT FM260300 24005KT P6SM SKC FM261500 07005KT P6SM SKC

Observacions i pronòstics meteorològics de més de 4000 aeroports (METAR i TAF).

Les estacions disponibles són els punts grocs i vermells al mapa.

Posi el ratolí al punt desitjat per veure el nom de l'estació.

Feu clic per veure les observacions i els pronòstics meteorològics.

Per canviar el mapa: feu clic els botons verds amb una creu de color negre per apropar; al botó verd amb un guió per allunyar la imatge; o en les fletxes verdes per a mapes adjacents.


METAR-TAF: